CFDIA CNC3-CNC3
Flight info
| Callsign | CFDIA |
|---|---|
| Flight time | 0h 22m |
| Altitude | 5000 |
| Route | |
| Aircraft | DA40/L-SBDFGRY/S |
Departure
| Time | 2026-05-07 00:51 |
|---|---|
| Airport | Brampton-Caledon Airport (CNC3) |
Arrival
| Time | 2026-05-07 01:14 |
|---|---|
| Airport | Brampton-Caledon Airport (CNC3) |
| Time | Latitude | Longitude | Altitude | Speed | Heading |
|---|---|---|---|---|---|
| 2026-05-07 00:49 | 43.61068 | -79.40776 | 2393 ft | 78 kts | 230° |
| 2026-05-07 00:50 | 43.60687 | -79.41283 | 2682 ft | 77 kts | 231° |
| 2026-05-07 00:50 | 43.60304 | -79.41789 | 2973 ft | 76 kts | 231° |
| 2026-05-07 00:50 | 43.59922 | -79.42290 | 3257 ft | 76 kts | 231° |
| 2026-05-07 00:50 | 43.59539 | -79.42790 | 3523 ft | 77 kts | 231° |
| 2026-05-07 00:51 | 43.59131 | -79.43295 | 3769 ft | 80 kts | 231° |
| 2026-05-07 00:51 | 43.58708 | -79.43810 | 4001 ft | 86 kts | 231° |
| 2026-05-07 00:51 | 43.58273 | -79.44516 | 4002 ft | 103 kts | 255° |
| 2026-05-07 00:51 | 43.58318 | -79.45485 | 4001 ft | 107 kts | 300° |
| 2026-05-07 00:52 | 43.58890 | -79.46170 | 4003 ft | 113 kts | 322° |
| 2026-05-07 00:52 | 43.59445 | -79.46948 | 4000 ft | 116 kts | 305° |
| 2026-05-07 00:52 | 43.59884 | -79.47883 | 4001 ft | 117 kts | 301° |
| 2026-05-07 00:52 | 43.60302 | -79.48849 | 4001 ft | 118 kts | 300° |
| 2026-05-07 00:53 | 43.60713 | -79.49828 | 4000 ft | 118 kts | 300° |
| 2026-05-07 00:53 | 43.61120 | -79.50812 | 3994 ft | 118 kts | 300° |
| 2026-05-07 00:53 | 43.61526 | -79.51798 | 4000 ft | 118 kts | 300° |
| 2026-05-07 00:53 | 43.61931 | -79.52786 | 3991 ft | 118 kts | 300° |
| 2026-05-07 00:54 | 43.62337 | -79.53775 | 3993 ft | 118 kts | 300° |
| 2026-05-07 00:54 | 43.62742 | -79.54765 | 3993 ft | 118 kts | 300° |
| 2026-05-07 00:54 | 43.63147 | -79.55758 | 3993 ft | 118 kts | 300° |
| 2026-05-07 00:54 | 43.63553 | -79.56747 | 3993 ft | 119 kts | 300° |
| 2026-05-07 00:55 | 43.63959 | -79.57738 | 3991 ft | 119 kts | 300° |
| 2026-05-07 00:55 | 43.64365 | -79.58731 | 3991 ft | 119 kts | 300° |
| 2026-05-07 00:55 | 43.64771 | -79.59724 | 3991 ft | 119 kts | 300° |
| 2026-05-07 00:55 | 43.65172 | -79.60704 | 3991 ft | 119 kts | 300° |
| 2026-05-07 00:56 | 43.65576 | -79.61694 | 3990 ft | 118 kts | 300° |
| 2026-05-07 00:56 | 43.65981 | -79.62685 | 3991 ft | 118 kts | 300° |
| 2026-05-07 00:56 | 43.66385 | -79.63677 | 3991 ft | 118 kts | 300° |
| 2026-05-07 00:56 | 43.66790 | -79.64668 | 3990 ft | 118 kts | 300° |
| 2026-05-07 00:57 | 43.67057 | -79.65322 | 3993 ft | 118 kts | 300° |
| 2026-05-07 00:57 | 43.67460 | -79.66311 | 3992 ft | 118 kts | 300° |
| 2026-05-07 00:57 | 43.67862 | -79.67297 | 3987 ft | 118 kts | 300° |
| 2026-05-07 00:57 | 43.68396 | -79.68606 | 3992 ft | 118 kts | 300° |
| 2026-05-07 00:58 | 43.68668 | -79.69274 | 4000 ft | 118 kts | 300° |
| 2026-05-07 00:58 | 43.69065 | -79.70248 | 4000 ft | 118 kts | 300° |
| 2026-05-07 00:58 | 43.69466 | -79.71234 | 4000 ft | 118 kts | 300° |
| 2026-05-07 00:58 | 43.69867 | -79.72220 | 4003 ft | 118 kts | 300° |
| 2026-05-07 00:59 | 43.70669 | -79.74192 | 4002 ft | 118 kts | 300° |
| 2026-05-07 00:59 | 43.71071 | -79.75179 | 3997 ft | 118 kts | 300° |
| 2026-05-07 00:59 | 43.71471 | -79.76165 | 4003 ft | 118 kts | 300° |
| 2026-05-07 01:00 | 43.71873 | -79.77153 | 4002 ft | 118 kts | 301° |
| 2026-05-07 01:00 | 43.72275 | -79.78140 | 3998 ft | 118 kts | 300° |
| 2026-05-07 01:00 | 43.72674 | -79.79125 | 4002 ft | 118 kts | 300° |
| 2026-05-07 01:00 | 43.73073 | -79.80107 | 4001 ft | 116 kts | 300° |
| 2026-05-07 01:01 | 43.73464 | -79.81074 | 3999 ft | 114 kts | 300° |
| 2026-05-07 01:01 | 43.73850 | -79.82032 | 4000 ft | 114 kts | 300° |
| 2026-05-07 01:01 | 43.74239 | -79.82982 | 3998 ft | 113 kts | 300° |
| 2026-05-07 01:01 | 43.74624 | -79.83930 | 4001 ft | 113 kts | 300° |
| 2026-05-07 01:02 | 43.75008 | -79.84879 | 4000 ft | 113 kts | 300° |
| 2026-05-07 01:02 | 43.75398 | -79.85841 | 3900 ft | 119 kts | 300° |
| 2026-05-07 01:02 | 43.75817 | -79.86876 | 3721 ft | 126 kts | 300° |
| 2026-05-07 01:02 | 43.76248 | -79.87939 | 3549 ft | 130 kts | 300° |
| 2026-05-07 01:03 | 43.76695 | -79.89043 | 3368 ft | 133 kts | 300° |
| 2026-05-07 01:03 | 43.77149 | -79.90164 | 3186 ft | 135 kts | 300° |
| 2026-05-07 01:03 | 43.77602 | -79.91285 | 3106 ft | 130 kts | 300° |
| 2026-05-07 01:03 | 43.78033 | -79.92353 | 3101 ft | 125 kts | 300° |
| 2026-05-07 01:04 | 43.78455 | -79.93397 | 3106 ft | 123 kts | 299° |
| 2026-05-07 01:04 | 43.78868 | -79.94422 | 3104 ft | 121 kts | 299° |
| 2026-05-07 01:04 | 43.79276 | -79.95434 | 3107 ft | 120 kts | 299° |
| 2026-05-07 01:04 | 43.79683 | -79.96448 | 3105 ft | 120 kts | 299° |
| 2026-05-07 01:05 | 43.80093 | -79.97456 | 3102 ft | 120 kts | 300° |
| 2026-05-07 01:05 | 43.80507 | -79.98446 | 3113 ft | 122 kts | 300° |
| 2026-05-07 01:05 | 43.80935 | -79.99468 | 3102 ft | 122 kts | 301° |
| 2026-05-07 01:05 | 43.81358 | -80.00481 | 3101 ft | 121 kts | 300° |
| 2026-05-07 01:06 | 43.81777 | -80.01493 | 3100 ft | 121 kts | 300° |
| 2026-05-07 01:06 | 43.82189 | -80.02518 | 3093 ft | 122 kts | 294° |
| 2026-05-07 01:06 | 43.82263 | -80.03679 | 3103 ft | 125 kts | 262° |
| 2026-05-07 01:06 | 43.82048 | -80.04845 | 3105 ft | 125 kts | 259° |
| 2026-05-07 01:07 | 43.81819 | -80.06005 | 3108 ft | 125 kts | 259° |
| 2026-05-07 01:07 | 43.81594 | -80.07157 | 3107 ft | 123 kts | 259° |
| 2026-05-07 01:07 | 43.81501 | -80.08312 | 3103 ft | 120 kts | 282° |
| 2026-05-07 01:07 | 43.81866 | -80.09329 | 3106 ft | 120 kts | 313° |
| 2026-05-07 01:08 | 43.82591 | -80.09885 | 3110 ft | 123 kts | 343° |
| 2026-05-07 01:08 | 43.83458 | -80.09745 | 3110 ft | 132 kts | 19° |
| 2026-05-07 01:08 | 43.84123 | -80.08836 | 3107 ft | 141 kts | 59° |
| 2026-05-07 01:08 | 43.84212 | -80.07474 | 3109 ft | 148 kts | 103° |
| 2026-05-07 01:09 | 43.83768 | -80.06211 | 3109 ft | 149 kts | 120° |
| 2026-05-07 01:09 | 43.83232 | -80.04984 | 3110 ft | 149 kts | 121° |
| 2026-05-07 01:09 | 43.82705 | -80.03750 | 3107 ft | 149 kts | 120° |
| 2026-05-07 01:09 | 43.82188 | -80.02512 | 3106 ft | 149 kts | 120° |
| 2026-05-07 01:10 | 43.81682 | -80.01266 | 3104 ft | 148 kts | 119° |
| 2026-05-07 01:10 | 43.81158 | -80.00037 | 3098 ft | 148 kts | 120° |
| 2026-05-07 01:10 | 43.80649 | -79.98807 | 3099 ft | 145 kts | 119° |
| 2026-05-07 01:10 | 43.80172 | -79.97685 | 3055 ft | 128 kts | 122° |
| 2026-05-07 01:11 | 43.79692 | -79.96649 | 2953 ft | 125 kts | 124° |
| 2026-05-07 01:11 | 43.79225 | -79.95624 | 2825 ft | 128 kts | 118° |
| 2026-05-07 01:11 | 43.78784 | -79.94538 | 2603 ft | 129 kts | 120° |
| 2026-05-07 01:11 | 43.78325 | -79.93496 | 2425 ft | 125 kts | 121° |
| 2026-05-07 01:12 | 43.77884 | -79.92493 | 2227 ft | 122 kts | 124° |
| 2026-05-07 01:12 | 43.77443 | -79.91496 | 2022 ft | 125 kts | 121° |
| 2026-05-07 01:12 | 43.76994 | -79.90499 | 1869 ft | 121 kts | 130° |
| 2026-05-07 01:12 | 43.76438 | -79.89601 | 1632 ft | 125 kts | 129° |
| 2026-05-07 01:13 | 43.75889 | -79.88715 | 1551 ft | 115 kts | 132° |
| 2026-05-07 01:13 | 43.75344 | -79.87895 | 1508 ft | 115 kts | 133° |
| 2026-05-07 01:13 | 43.74934 | -79.87123 | 1447 ft | 92 kts | 98° |
| 2026-05-07 01:13 | 43.75120 | -79.86401 | 1264 ft | 75 kts | 23° |
| 2026-05-07 01:14 | 43.75516 | -79.86714 | 967 ft | 67 kts | 314° |
| 2026-05-07 01:14 | 43.75794 | -79.87088 | 917 ft | 43 kts | 316° |
| 2026-05-07 01:14 | 43.75927 | -79.87258 | 917 ft | 13 kts | 310° |
| 2026-05-07 01:14 | 43.75963 | -79.87328 | 918 ft | 6 kts | 234° |
| 2026-05-07 01:15 | 43.75943 | -79.87394 | 918 ft | 7 kts | 250° |